Time;durP1;ratioP1;P1;durP2;ratioP2;P2;SDS_P1;SDS_P2;PMS_P1;PMS_P2;Temp;Humidity;BMP_temperature;BMP_pressure;BME280_temperature;BME280_humidity;BME280_pressure;Samples;Min_cycle;Max_cycle;Signal;HPM_P1;HPM_P2
2021/04/02 00:00:35;;;;;;;6.25;3.8;;;;;;;10.67;65.21387;95165.7;;;;
2021/04/02 00:01:40;;;;;;;6.25;3.8;;;;;;;10.67;65.21387;95165.7;;;;
2021/04/02 00:02:41;;;;;;;6.25;3.8;;;;;;;10.67;65.21387;95165.7;;;;
2021/04/02 00:03:42;;;;;;;6.25;3.8;;;;;;;10.67;65.21387;95165.7;;;;
2021/04/02 00:04:43;;;;;;;9;3.85;;;;;;;10.3;65.42676;95170.19;;;;
2021/04/02 00:05:43;;;;;;;9;3.85;;;;;;;10.3;65.42676;95170.19;;;;
2021/04/02 00:06:44;;;;;;;9;3.85;;;;;;;10.3;65.42676;95170.19;;;;
2021/04/02 00:07:44;;;;;;;9;3.85;;;;;;;10.3;65.42676;95170.19;;;;
2021/04/02 00:08:45;;;;;;;9;3.85;;;;;;;10.3;65.42676;95170.19;;;;
2021/04/02 00:09:46;;;;;;;9;3.85;;;;;;;10.3;65.42676;95170.19;;;;
2021/04/02 00:10:46;;;;;;;9;3.85;;;;;;;10.3;65.42676;95170.19;;;;
2021/04/02 00:11:50;;;;;;;9;3.85;;;;;;;10.3;65.42676;95170.19;;;;
2021/04/02 00:12:51;;;;;;;9;3.85;;;;;;;10.3;65.42676;95170.19;;;;
2021/04/02 00:13:52;;;;;;;9;3.85;;;;;;;10.3;65.42676;95170.19;;;;
2021/04/02 00:14:52;;;;;;;6.55;4.400001;;;;;;;10.01;65.9082;95163.44;;;;
2021/04/02 00:15:53;;;;;;;6.55;4.400001;;;;;;;10.01;65.9082;95163.44;;;;
2021/04/02 00:16:55;;;;;;;6.55;4.400001;;;;;;;10.01;65.9082;95163.44;;;;
2021/04/02 00:17:55;;;;;;;6.55;4.400001;;;;;;;10.01;65.9082;95163.44;;;;
2021/04/02 00:18:56;;;;;;;6.55;4.400001;;;;;;;10.01;65.9082;95163.44;;;;
2021/04/02 00:19:56;;;;;;;6.55;4.400001;;;;;;;10.01;65.9082;95163.44;;;;
2021/04/02 00:20:57;;;;;;;6.55;4.400001;;;;;;;10.01;65.9082;95163.44;;;;
2021/04/02 00:21:59;;;;;;;6.55;4.400001;;;;;;;10.01;65.9082;95163.44;;;;
2021/04/02 00:23:00;;;;;;;6.55;4.400001;;;;;;;10.01;65.9082;95163.44;;;;
2021/04/02 00:24:00;;;;;;;6.55;4.400001;;;;;;;10.01;65.9082;95163.44;;;;
2021/04/02 00:25:01;;;;;;;6.55;4.400001;;;;;;;10.01;65.9082;95163.44;;;;
2021/04/02 00:26:02;;;;;;;9.8;4.799999;;;;;;;9.69;66.35352;95158.92;;;;
2021/04/02 00:27:06;;;;;;;9.8;4.799999;;;;;;;9.69;66.35352;95158.92;;;;
2021/04/02 00:28:07;;;;;;;9.8;4.799999;;;;;;;9.69;66.35352;95158.92;;;;
2021/04/02 00:29:08;;;;;;;9.8;4.799999;;;;;;;9.69;66.35352;95158.92;;;;
2021/04/02 00:30:09;;;;;;;9.8;4.799999;;;;;;;9.69;66.35352;95158.92;;;;
2021/04/02 00:31:14;;;;;;;9.8;4.799999;;;;;;;9.69;66.35352;95158.92;;;;
2021/04/02 00:32:15;;;;;;;9.8;4.799999;;;;;;;9.69;66.35352;95158.92;;;;
2021/04/02 00:33:16;;;;;;;9.8;4.799999;;;;;;;9.69;66.35352;95158.92;;;;
2021/04/02 00:34:18;;;;;;;9.8;4.799999;;;;;;;9.69;66.35352;95158.92;;;;
2021/04/02 00:35:19;;;;;;;9.8;4.799999;;;;;;;9.69;66.35352;95158.92;;;;
2021/04/02 00:36:20;;;;;;;7.849999;4.6;;;;;;;9.46;66.72363;95171.55;;;;
2021/04/02 00:37:20;;;;;;;7.849999;4.6;;;;;;;9.46;66.72363;95171.55;;;;
2021/04/02 00:38:21;;;;;;;7.849999;4.6;;;;;;;9.46;66.72363;95171.55;;;;
2021/04/02 00:39:22;;;;;;;7.849999;4.6;;;;;;;9.46;66.72363;95171.55;;;;
2021/04/02 00:40:22;;;;;;;7.849999;4.6;;;;;;;9.46;66.72363;95171.55;;;;
2021/04/02 00:41:26;;;;;;;7.849999;4.6;;;;;;;9.46;66.72363;95171.55;;;;
2021/04/02 00:42:26;;;;;;;7.849999;4.6;;;;;;;9.46;66.72363;95171.55;;;;
2021/04/02 00:43:27;;;;;;;7.849999;4.6;;;;;;;9.46;66.72363;95171.55;;;;
2021/04/02 00:44:30;;;;;;;7.849999;4.6;;;;;;;9.46;66.72363;95171.55;;;;
2021/04/02 00:45:31;;;;;;;7.849999;4.6;;;;;;;9.46;66.72363;95171.55;;;;
2021/04/02 00:46:32;;;;;;;7.65;4.3;;;;;;;9.15;67.17871;95160.94;;;;
2021/04/02 00:47:32;;;;;;;7.65;4.3;;;;;;;9.15;67.17871;95160.94;;;;
2021/04/02 00:48:33;;;;;;;7.65;4.3;;;;;;;9.15;67.17871;95160.94;;;;
2021/04/02 00:49:34;;;;;;;7.65;4.3;;;;;;;9.15;67.17871;95160.94;;;;
2021/04/02 00:50:34;;;;;;;7.65;4.3;;;;;;;9.15;67.17871;95160.94;;;;
2021/04/02 00:51:39;;;;;;;7.65;4.3;;;;;;;9.15;67.17871;95160.94;;;;
2021/04/02 00:52:39;;;;;;;7.65;4.3;;;;;;;9.15;67.17871;95160.94;;;;
2021/04/02 00:53:40;;;;;;;7.65;4.3;;;;;;;9.15;67.17871;95160.94;;;;
2021/04/02 00:54:43;;;;;;;7.65;4.3;;;;;;;9.15;67.17871;95160.94;;;;
2021/04/02 00:55:43;;;;;;;7.65;4.3;;;;;;;9.15;67.17871;95160.94;;;;
2021/04/02 00:56:45;;;;;;;7.65;4.3;;;;;;;9.15;67.17871;95160.94;;;;
2021/04/02 00:57:45;;;;;;;8.349998;4.900001;;;;;;;8.84;67.68555;95168.41;;;;
2021/04/02 00:58:46;;;;;;;8.349998;4.900001;;;;;;;8.84;67.68555;95168.41;;;;
2021/04/02 00:59:48;;;;;;;8.349998;4.900001;;;;;;;8.84;67.68555;95168.41;;;;
2021/04/02 01:00:48;;;;;;;8.349998;4.900001;;;;;;;8.84;67.68555;95168.41;;;;
2021/04/02 01:01:49;;;;;;;8.349998;4.900001;;;;;;;8.84;67.68555;95168.41;;;;
2021/04/02 01:02:50;;;;;;;8.349998;4.900001;;;;;;;8.84;67.68555;95168.41;;;;
2021/04/02 01:03:53;;;;;;;8.349998;4.900001;;;;;;;8.84;67.68555;95168.41;;;;
2021/04/02 01:04:53;;;;;;;8.349998;4.900001;;;;;;;8.84;67.68555;95168.41;;;;
2021/04/02 01:05:54;;;;;;;8.349998;4.900001;;;;;;;8.84;67.68555;95168.41;;;;
2021/04/02 01:06:59;;;;;;;8.349998;4.900001;;;;;;;8.84;67.68555;95168.41;;;;
2021/04/02 01:07:59;;;;;;;9.5;5.25;;;;;;;8.6;68.32129;95162.09;;;;
2021/04/02 01:09:04;;;;;;;9.5;5.25;;;;;;;8.6;68.32129;95162.09;;;;
2021/04/02 01:10:04;;;;;;;9.5;5.25;;;;;;;8.6;68.32129;95162.09;;;;
2021/04/02 01:11:10;;;;;;;9.5;5.25;;;;;;;8.6;68.32129;95162.09;;;;
2021/04/02 01:12:12;;;;;;;9.5;5.25;;;;;;;8.6;68.32129;95162.09;;;;
2021/04/02 01:13:13;;;;;;;9.5;5.25;;;;;;;8.6;68.32129;95162.09;;;;
2021/04/02 01:14:19;;;;;;;9.5;5.25;;;;;;;8.6;68.32129;95162.09;;;;
2021/04/02 01:15:19;;;;;;;9.5;5.25;;;;;;;8.6;68.32129;95162.09;;;;
2021/04/02 01:16:27;;;;;;;9.5;5.25;;;;;;;8.6;68.32129;95162.09;;;;
2021/04/02 01:17:29;;;;;;;9.5;5.25;;;;;;;8.6;68.32129;95162.09;;;;
2021/04/02 01:18:30;;;;;;;9.5;5.25;;;;;;;8.6;68.32129;95162.09;;;;
2021/04/02 01:19:36;;;;;;;10.8;5.699999;;;;;;;8.55;68.62402;95163.31;;;;
2021/04/02 01:20:41;;;;;;;10.8;5.699999;;;;;;;8.55;68.62402;95163.31;;;;
2021/04/02 01:21:45;;;;;;;10.8;5.699999;;;;;;;8.55;68.62402;95163.31;;;;
2021/04/02 01:22:48;;;;;;;10.8;5.699999;;;;;;;8.55;68.62402;95163.31;;;;
2021/04/02 01:23:51;;;;;;;10.8;5.699999;;;;;;;8.55;68.62402;95163.31;;;;
2021/04/02 01:25:09;;;;;;;10.8;5.699999;;;;;;;8.55;68.62402;95163.31;;;;
2021/04/02 01:26:22;;;;;;;10.8;5.699999;;;;;;;8.55;68.62402;95163.31;;;;
2021/04/02 01:27:31;;;;;;;10.8;5.699999;;;;;;;8.55;68.62402;95163.31;;;;
2021/04/02 01:28:39;;;;;;;10.8;5.699999;;;;;;;8.55;68.62402;95163.31;;;;
2021/04/02 01:29:54;;;;;;;11.25;6.5;;;;;;;8.44;68.94727;95166.75;;;;
2021/04/02 01:30:57;;;;;;;11.25;6.5;;;;;;;8.44;68.94727;95166.75;;;;
2021/04/02 01:31:59;;;;;;;11.25;6.5;;;;;;;8.44;68.94727;95166.75;;;;
2021/04/02 01:33:02;;;;;;;11.25;6.5;;;;;;;8.44;68.94727;95166.75;;;;
2021/04/02 01:34:06;;;;;;;11.25;6.5;;;;;;;8.44;68.94727;95166.75;;;;
2021/04/02 01:35:08;;;;;;;11.25;6.5;;;;;;;8.44;68.94727;95166.75;;;;
2021/04/02 01:36:14;;;;;;;11.25;6.5;;;;;;;8.44;68.94727;95166.75;;;;
2021/04/02 01:37:15;;;;;;;11.25;6.5;;;;;;;8.44;68.94727;95166.75;;;;
2021/04/02 01:38:30;;;;;;;11.25;6.5;;;;;;;8.44;68.94727;95166.75;;;;
2021/04/02 01:39:34;;;;;;;11.25;6.5;;;;;;;8.44;68.94727;95166.75;;;;
2021/04/02 01:40:39;;;;;;;11.35;7.1;;;;;;;8.28;69.39063;95167.36;;;;
2021/04/02 01:41:44;;;;;;;11.35;7.1;;;;;;;8.28;69.39063;95167.36;;;;
2021/04/02 01:42:48;;;;;;;11.35;7.1;;;;;;;8.28;69.39063;95167.36;;;;
2021/04/02 01:43:51;;;;;;;11.35;7.1;;;;;;;8.28;69.39063;95167.36;;;;
2021/04/02 01:44:55;;;;;;;11.35;7.1;;;;;;;8.28;69.39063;95167.36;;;;
2021/04/02 01:45:57;;;;;;;11.35;7.1;;;;;;;8.28;69.39063;95167.36;;;;
2021/04/02 01:46:58;;;;;;;11.35;7.1;;;;;;;8.28;69.39063;95167.36;;;;
2021/04/02 01:48:00;;;;;;;11.35;7.1;;;;;;;8.28;69.39063;95167.36;;;;
2021/04/02 01:49:03;;;;;;;11.35;7.1;;;;;;;8.28;69.39063;95167.36;;;;
2021/04/02 01:50:07;;;;;;;11.35;7.1;;;;;;;8.28;69.39063;95167.36;;;;
2021/04/02 01:51:11;;;;;;;11.55;7.349999;;;;;;;8.1;69.77734;95171.36;;;;
2021/04/02 01:52:13;;;;;;;11.55;7.349999;;;;;;;8.1;69.77734;95171.36;;;;
2021/04/02 01:53:14;;;;;;;11.55;7.349999;;;;;;;8.1;69.77734;95171.36;;;;
2021/04/02 01:54:15;;;;;;;11.55;7.349999;;;;;;;8.1;69.77734;95171.36;;;;
2021/04/02 01:55:17;;;;;;;11.55;7.349999;;;;;;;8.1;69.77734;95171.36;;;;
2021/04/02 01:56:18;;;;;;;11.55;7.349999;;;;;;;8.1;69.77734;95171.36;;;;
2021/04/02 01:57:19;;;;;;;11.55;7.349999;;;;;;;8.1;69.77734;95171.36;;;;
2021/04/02 01:58:21;;;;;;;11.55;7.349999;;;;;;;8.1;69.77734;95171.36;;;;
2021/04/02 01:59:22;;;;;;;11.55;7.349999;;;;;;;8.1;69.77734;95171.36;;;;
2021/04/02 02:00:24;;;;;;;11.55;7.349999;;;;;;;8.1;69.77734;95171.36;;;;
2021/04/02 02:01:31;;;;;;;15.4;7.65;;;;;;;7.92;70.12012;95176.72;;;;
2021/04/02 02:02:35;;;;;;;15.4;7.65;;;;;;;7.92;70.12012;95176.72;;;;
2021/04/02 02:03:36;;;;;;;15.4;7.65;;;;;;;7.92;70.12012;95176.72;;;;
2021/04/02 02:04:38;;;;;;;15.4;7.65;;;;;;;7.92;70.12012;95176.72;;;;
2021/04/02 02:05:41;;;;;;;15.4;7.65;;;;;;;7.92;70.12012;95176.72;;;;
2021/04/02 02:06:43;;;;;;;15.4;7.65;;;;;;;7.92;70.12012;95176.72;;;;
2021/04/02 02:07:45;;;;;;;15.4;7.65;;;;;;;7.92;70.12012;95176.72;;;;
2021/04/02 02:08:47;;;;;;;15.4;7.65;;;;;;;7.92;70.12012;95176.72;;;;
2021/04/02 02:09:49;;;;;;;15.4;7.65;;;;;;;7.92;70.12012;95176.72;;;;
2021/04/02 02:10:52;;;;;;;15.4;7.65;;;;;;;7.92;70.12012;95176.72;;;;
2021/04/02 02:11:58;;;;;;;13.1;8.050002;;;;;;;7.74;70.53809;95177.09;;;;
2021/04/02 02:13:03;;;;;;;13.1;8.050002;;;;;;;7.74;70.53809;95177.09;;;;
2021/04/02 02:14:06;;;;;;;13.1;8.050002;;;;;;;7.74;70.53809;95177.09;;;;
2021/04/02 02:15:11;;;;;;;13.1;8.050002;;;;;;;7.74;70.53809;95177.09;;;;
2021/04/02 02:16:14;;;;;;;13.1;8.050002;;;;;;;7.74;70.53809;95177.09;;;;
2021/04/02 02:17:15;;;;;;;13.1;8.050002;;;;;;;7.74;70.53809;95177.09;;;;
2021/04/02 02:18:21;;;;;;;13.1;8.050002;;;;;;;7.74;70.53809;95177.09;;;;
2021/04/02 02:19:25;;;;;;;13.1;8.050002;;;;;;;7.74;70.53809;95177.09;;;;
2021/04/02 02:20:29;;;;;;;13.1;8.050002;;;;;;;7.74;70.53809;95177.09;;;;
2021/04/02 02:21:32;;;;;;;13.1;8.050002;;;;;;;7.74;70.53809;95177.09;;;;
2021/04/02 02:22:33;;;;;;;13.1;8.050002;;;;;;;7.74;70.53809;95177.09;;;;
2021/04/02 02:23:34;;;;;;;15.5;8.149999;;;;;;;7.64;70.62891;95180.82;;;;
2021/04/02 02:24:35;;;;;;;15.5;8.149999;;;;;;;7.64;70.62891;95180.82;;;;
2021/04/02 02:25:37;;;;;;;15.5;8.149999;;;;;;;7.64;70.62891;95180.82;;;;
2021/04/02 02:26:38;;;;;;;15.5;8.149999;;;;;;;7.64;70.62891;95180.82;;;;
2021/04/02 02:27:40;;;;;;;15.5;8.149999;;;;;;;7.64;70.62891;95180.82;;;;
2021/04/02 02:28:41;;;;;;;15.5;8.149999;;;;;;;7.64;70.62891;95180.82;;;;
2021/04/02 02:29:42;;;;;;;15.5;8.149999;;;;;;;7.64;70.62891;95180.82;;;;
2021/04/02 02:30:43;;;;;;;15.5;8.149999;;;;;;;7.64;70.62891;95180.82;;;;
2021/04/02 02:31:45;;;;;;;15.5;8.149999;;;;;;;7.64;70.62891;95180.82;;;;
2021/04/02 02:32:45;;;;;;;15.5;8.149999;;;;;;;7.64;70.62891;95180.82;;;;
2021/04/02 02:33:47;;;;;;;12.75;7.500001;;;;;;;7.46;70.95117;95184.38;;;;
2021/04/02 02:34:47;;;;;;;12.75;7.500001;;;;;;;7.46;70.95117;95184.38;;;;
2021/04/02 02:35:48;;;;;;;12.75;7.500001;;;;;;;7.46;70.95117;95184.38;;;;
2021/04/02 02:36:48;;;;;;;12.75;7.500001;;;;;;;7.46;70.95117;95184.38;;;;
2021/04/02 02:37:51;;;;;;;12.75;7.500001;;;;;;;7.46;70.95117;95184.38;;;;
2021/04/02 02:38:52;;;;;;;12.75;7.500001;;;;;;;7.46;70.95117;95184.38;;;;
2021/04/02 02:39:53;;;;;;;12.75;7.500001;;;;;;;7.46;70.95117;95184.38;;;;
2021/04/02 02:40:54;;;;;;;12.75;7.500001;;;;;;;7.46;70.95117;95184.38;;;;
2021/04/02 02:41:55;;;;;;;12.75;7.500001;;;;;;;7.46;70.95117;95184.38;;;;
2021/04/02 02:42:56;;;;;;;12.75;7.500001;;;;;;;7.46;70.95117;95184.38;;;;
2021/04/02 02:43:57;;;;;;;11.7;8.199999;;;;;;;7.25;71.36328;95183.29;;;;
2021/04/02 02:44:58;;;;;;;11.7;8.199999;;;;;;;7.25;71.36328;95183.29;;;;
2021/04/02 02:45:59;;;;;;;11.7;8.199999;;;;;;;7.25;71.36328;95183.29;;;;
2021/04/02 02:46:59;;;;;;;11.7;8.199999;;;;;;;7.25;71.36328;95183.29;;;;
2021/04/02 02:48:02;;;;;;;11.7;8.199999;;;;;;;7.25;71.36328;95183.29;;;;
2021/04/02 02:49:03;;;;;;;11.7;8.199999;;;;;;;7.25;71.36328;95183.29;;;;
2021/04/02 02:50:09;;;;;;;11.7;8.199999;;;;;;;7.25;71.36328;95183.29;;;;
2021/04/02 02:51:15;;;;;;;11.7;8.199999;;;;;;;7.25;71.36328;95183.29;;;;
2021/04/02 02:52:17;;;;;;;11.7;8.199999;;;;;;;7.25;71.36328;95183.29;;;;
2021/04/02 02:53:19;;;;;;;11.7;8.199999;;;;;;;7.25;71.36328;95183.29;;;;
2021/04/02 02:54:23;;;;;;;11.7;8.199999;;;;;;;7.25;71.36328;95183.29;;;;
2021/04/02 02:55:23;;;;;;;13.4;8.35;;;;;;;7.09;71.69629;95181.67;;;;
2021/04/02 02:56:27;;;;;;;13.4;8.35;;;;;;;7.09;71.69629;95181.67;;;;
2021/04/02 02:57:30;;;;;;;13.4;8.35;;;;;;;7.09;71.69629;95181.67;;;;
2021/04/02 02:58:34;;;;;;;13.4;8.35;;;;;;;7.09;71.69629;95181.67;;;;
2021/04/02 02:59:37;;;;;;;13.4;8.35;;;;;;;7.09;71.69629;95181.67;;;;
2021/04/02 03:00:39;;;;;;;13.4;8.35;;;;;;;7.09;71.69629;95181.67;;;;
2021/04/02 03:01:43;;;;;;;13.4;8.35;;;;;;;7.09;71.69629;95181.67;;;;
2021/04/02 03:02:46;;;;;;;13.4;8.35;;;;;;;7.09;71.69629;95181.67;;;;
2021/04/02 03:03:49;;;;;;;13.4;8.35;;;;;;;7.09;71.69629;95181.67;;;;
2021/04/02 03:04:52;;;;;;;13.4;8.35;;;;;;;7.09;71.69629;95181.67;;;;
2021/04/02 03:05:55;;;;;;;15.7;8.9;;;;;;;6.94;72.00195;95183.31;;;;
2021/04/02 03:06:59;;;;;;;15.7;8.9;;;;;;;6.94;72.00195;95183.31;;;;
2021/04/02 03:08:01;;;;;;;15.7;8.9;;;;;;;6.94;72.00195;95183.31;;;;
2021/04/02 03:09:04;;;;;;;15.7;8.9;;;;;;;6.94;72.00195;95183.31;;;;
2021/04/02 03:10:07;;;;;;;15.7;8.9;;;;;;;6.94;72.00195;95183.31;;;;
2021/04/02 03:11:10;;;;;;;15.7;8.9;;;;;;;6.94;72.00195;95183.31;;;;
2021/04/02 03:12:12;;;;;;;15.7;8.9;;;;;;;6.94;72.00195;95183.31;;;;
2021/04/02 03:13:14;;;;;;;15.7;8.9;;;;;;;6.94;72.00195;95183.31;;;;
2021/04/02 03:14:16;;;;;;;15.7;8.9;;;;;;;6.94;72.00195;95183.31;;;;
2021/04/02 03:15:19;;;;;;;15.7;8.9;;;;;;;6.94;72.00195;95183.31;;;;
2021/04/02 03:16:21;;;;;;;17.3;10.8;;;;;;;6.77;72.29199;95178.55;;;;
2021/04/02 03:17:24;;;;;;;17.3;10.8;;;;;;;6.77;72.29199;95178.55;;;;
2021/04/02 03:18:25;;;;;;;17.3;10.8;;;;;;;6.77;72.29199;95178.55;;;;
2021/04/02 03:19:27;;;;;;;17.3;10.8;;;;;;;6.77;72.29199;95178.55;;;;
2021/04/02 03:20:29;;;;;;;17.3;10.8;;;;;;;6.77;72.29199;95178.55;;;;
2021/04/02 03:21:32;;;;;;;17.3;10.8;;;;;;;6.77;72.29199;95178.55;;;;
2021/04/02 03:22:33;;;;;;;17.3;10.8;;;;;;;6.77;72.29199;95178.55;;;;
2021/04/02 03:23:35;;;;;;;17.3;10.8;;;;;;;6.77;72.29199;95178.55;;;;
2021/04/02 03:24:36;;;;;;;17.3;10.8;;;;;;;6.77;72.29199;95178.55;;;;
2021/04/02 03:25:39;;;;;;;17.3;10.8;;;;;;;6.77;72.29199;95178.55;;;;
2021/04/02 03:26:42;;;;;;;16.95;9.599999;;;;;;;6.69;72.55371;95179.75;;;;
2021/04/02 03:27:49;;;;;;;16.95;9.599999;;;;;;;6.69;72.55371;95179.75;;;;
2021/04/02 03:28:51;;;;;;;16.95;9.599999;;;;;;;6.69;72.55371;95179.75;;;;
2021/04/02 03:29:53;;;;;;;16.95;9.599999;;;;;;;6.69;72.55371;95179.75;;;;
2021/04/02 03:30:54;;;;;;;16.95;9.599999;;;;;;;6.69;72.55371;95179.75;;;;
2021/04/02 03:31:56;;;;;;;16.95;9.599999;;;;;;;6.69;72.55371;95179.75;;;;
2021/04/02 03:33:00;;;;;;;16.95;9.599999;;;;;;;6.69;72.55371;95179.75;;;;
2021/04/02 03:34:09;;;;;;;16.95;9.599999;;;;;;;6.69;72.55371;95179.75;;;;
2021/04/02 03:35:13;;;;;;;16.95;9.599999;;;;;;;6.69;72.55371;95179.75;;;;
2021/04/02 03:36:15;;;;;;;16.95;9.599999;;;;;;;6.69;72.55371;95179.75;;;;
2021/04/02 03:37:16;;;;;;;19.3;11.1;;;;;;;6.59;72.53809;95179.37;;;;
2021/04/02 03:38:18;;;;;;;19.3;11.1;;;;;;;6.59;72.53809;95179.37;;;;
2021/04/02 03:39:20;;;;;;;19.3;11.1;;;;;;;6.59;72.53809;95179.37;;;;
2021/04/02 03:40:27;;;;;;;19.3;11.1;;;;;;;6.59;72.53809;95179.37;;;;
2021/04/02 03:41:28;;;;;;;19.3;11.1;;;;;;;6.59;72.53809;95179.37;;;;
2021/04/02 03:42:32;;;;;;;19.3;11.1;;;;;;;6.59;72.53809;95179.37;;;;
2021/04/02 03:43:35;;;;;;;19.3;11.1;;;;;;;6.59;72.53809;95179.37;;;;
2021/04/02 03:44:36;;;;;;;19.3;11.1;;;;;;;6.59;72.53809;95179.37;;;;
2021/04/02 03:45:39;;;;;;;19.3;11.1;;;;;;;6.59;72.53809;95179.37;;;;
2021/04/02 03:46:41;;;;;;;19.3;11.1;;;;;;;6.59;72.53809;95179.37;;;;
2021/04/02 03:47:45;;;;;;;19.3;11.1;;;;;;;6.59;72.53809;95179.37;;;;
2021/04/02 03:48:47;;;;;;;19.15;11.9;;;;;;;6.41;72.9541;95194.41;;;;
2021/04/02 03:49:49;;;;;;;19.15;11.9;;;;;;;6.41;72.9541;95194.41;;;;
2021/04/02 03:50:51;;;;;;;19.15;11.9;;;;;;;6.41;72.9541;95194.41;;;;
2021/04/02 03:51:56;;;;;;;19.15;11.9;;;;;;;6.41;72.9541;95194.41;;;;
2021/04/02 03:53:00;;;;;;;19.15;11.9;;;;;;;6.41;72.9541;95194.41;;;;
2021/04/02 03:54:07;;;;;;;19.15;11.9;;;;;;;6.41;72.9541;95194.41;;;;
2021/04/02 03:55:11;;;;;;;19.15;11.9;;;;;;;6.41;72.9541;95194.41;;;;
2021/04/02 03:56:16;;;;;;;19.15;11.9;;;;;;;6.41;72.9541;95194.41;;;;
2021/04/02 03:57:22;;;;;;;19.15;11.9;;;;;;;6.41;72.9541;95194.41;;;;
2021/04/02 03:58:25;;;;;;;19.15;11.9;;;;;;;6.41;72.9541;95194.41;;;;
2021/04/02 03:59:27;;;;;;;22.45001;12.65;;;;;;;6.26;73.31836;95200.53;;;;
2021/04/02 04:00:30;;;;;;;22.45001;12.65;;;;;;;6.26;73.31836;95200.53;;;;
2021/04/02 04:01:36;;;;;;;22.45001;12.65;;;;;;;6.26;73.31836;95200.53;;;;
2021/04/02 04:02:40;;;;;;;22.45001;12.65;;;;;;;6.26;73.31836;95200.53;;;;
2021/04/02 04:03:42;;;;;;;22.45001;12.65;;;;;;;6.26;73.31836;95200.53;;;;
2021/04/02 04:04:47;;;;;;;22.45001;12.65;;;;;;;6.26;73.31836;95200.53;;;;
2021/04/02 04:05:48;;;;;;;22.45001;12.65;;;;;;;6.26;73.31836;95200.53;;;;
2021/04/02 04:06:54;;;;;;;22.45001;12.65;;;;;;;6.26;73.31836;95200.53;;;;
2021/04/02 04:07:58;;;;;;;22.45001;12.65;;;;;;;6.26;73.31836;95200.53;;;;
2021/04/02 04:09:00;;;;;;;22.45001;12.65;;;;;;;6.26;73.31836;95200.53;;;;
2021/04/02 04:10:07;;;;;;;22.95;13.45;;;;;;;6.13;73.59668;95208.1;;;;
2021/04/02 04:11:11;;;;;;;22.95;13.45;;;;;;;6.13;73.59668;95208.1;;;;
2021/04/02 04:12:14;;;;;;;22.95;13.45;;;;;;;6.13;73.59668;95208.1;;;;
2021/04/02 04:13:17;;;;;;;22.95;13.45;;;;;;;6.13;73.59668;95208.1;;;;
2021/04/02 04:14:20;;;;;;;22.95;13.45;;;;;;;6.13;73.59668;95208.1;;;;
2021/04/02 04:15:23;;;;;;;22.95;13.45;;;;;;;6.13;73.59668;95208.1;;;;
2021/04/02 04:16:26;;;;;;;22.95;13.45;;;;;;;6.13;73.59668;95208.1;;;;
2021/04/02 04:17:28;;;;;;;22.95;13.45;;;;;;;6.13;73.59668;95208.1;;;;
2021/04/02 04:18:29;;;;;;;22.95;13.45;;;;;;;6.13;73.59668;95208.1;;;;
2021/04/02 04:19:32;;;;;;;22.95;13.45;;;;;;;6.13;73.59668;95208.1;;;;
2021/04/02 04:20:34;;;;;;;23.05;12.7;;;;;;;6.03;73.75684;95206.89;;;;
2021/04/02 04:21:36;;;;;;;23.05;12.7;;;;;;;6.03;73.75684;95206.89;;;;
2021/04/02 04:22:39;;;;;;;23.05;12.7;;;;;;;6.03;73.75684;95206.89;;;;
2021/04/02 04:23:41;;;;;;;23.05;12.7;;;;;;;6.03;73.75684;95206.89;;;;
2021/04/02 04:24:44;;;;;;;23.05;12.7;;;;;;;6.03;73.75684;95206.89;;;;
2021/04/02 04:25:46;;;;;;;23.05;12.7;;;;;;;6.03;73.75684;95206.89;;;;
2021/04/02 04:26:49;;;;;;;23.05;12.7;;;;;;;6.03;73.75684;95206.89;;;;
2021/04/02 04:27:52;;;;;;;23.05;12.7;;;;;;;6.03;73.75684;95206.89;;;;
2021/04/02 04:28:55;;;;;;;23.05;12.7;;;;;;;6.03;73.75684;95206.89;;;;
2021/04/02 04:29:58;;;;;;;23.05;12.7;;;;;;;6.03;73.75684;95206.89;;;;
2021/04/02 04:31:02;;;;;;;23.6;13.65;;;;;;;5.91;74.0127;95217.03;;;;
2021/04/02 04:32:04;;;;;;;23.6;13.65;;;;;;;5.91;74.0127;95217.03;;;;
2021/04/02 04:33:06;;;;;;;23.6;13.65;;;;;;;5.91;74.0127;95217.03;;;;
2021/04/02 04:34:08;;;;;;;23.6;13.65;;;;;;;5.91;74.0127;95217.03;;;;
2021/04/02 04:35:10;;;;;;;23.6;13.65;;;;;;;5.91;74.0127;95217.03;;;;
2021/04/02 04:36:14;;;;;;;23.6;13.65;;;;;;;5.91;74.0127;95217.03;;;;
2021/04/02 04:37:17;;;;;;;23.6;13.65;;;;;;;5.91;74.0127;95217.03;;;;
2021/04/02 04:38:19;;;;;;;23.6;13.65;;;;;;;5.91;74.0127;95217.03;;;;
2021/04/02 04:39:22;;;;;;;23.6;13.65;;;;;;;5.91;74.0127;95217.03;;;;
2021/04/02 04:40:24;;;;;;;23.6;13.65;;;;;;;5.91;74.0127;95217.03;;;;
2021/04/02 04:41:28;;;;;;;21.95;12.85;;;;;;;5.88;73.96387;95215.7;;;;
2021/04/02 04:42:29;;;;;;;21.95;12.85;;;;;;;5.88;73.96387;95215.7;;;;
2021/04/02 04:43:31;;;;;;;21.95;12.85;;;;;;;5.88;73.96387;95215.7;;;;
2021/04/02 04:44:33;;;;;;;21.95;12.85;;;;;;;5.88;73.96387;95215.7;;;;
2021/04/02 04:45:35;;;;;;;21.95;12.85;;;;;;;5.88;73.96387;95215.7;;;;
2021/04/02 04:46:36;;;;;;;21.95;12.85;;;;;;;5.88;73.96387;95215.7;;;;
2021/04/02 04:47:37;;;;;;;21.95;12.85;;;;;;;5.88;73.96387;95215.7;;;;
2021/04/02 04:48:38;;;;;;;21.95;12.85;;;;;;;5.88;73.96387;95215.7;;;;
2021/04/02 04:49:39;;;;;;;21.95;12.85;;;;;;;5.88;73.96387;95215.7;;;;
2021/04/02 04:50:39;;;;;;;21.95;12.85;;;;;;;5.88;73.96387;95215.7;;;;
2021/04/02 04:51:41;;;;;;;21.95;12.85;;;;;;;5.88;73.96387;95215.7;;;;
2021/04/02 04:52:42;;;;;;;24.1;13.3;;;;;;;5.72;73.93848;95221.34;;;;
2021/04/02 04:53:48;;;;;;;24.1;13.3;;;;;;;5.72;73.93848;95221.34;;;;
2021/04/02 04:54:53;;;;;;;24.1;13.3;;;;;;;5.72;73.93848;95221.34;;;;
2021/04/02 04:55:54;;;;;;;24.1;13.3;;;;;;;5.72;73.93848;95221.34;;;;
2021/04/02 04:56:59;;;;;;;24.1;13.3;;;;;;;5.72;73.93848;95221.34;;;;
2021/04/02 04:58:00;;;;;;;24.1;13.3;;;;;;;5.72;73.93848;95221.34;;;;
2021/04/02 04:59:02;;;;;;;24.1;13.3;;;;;;;5.72;73.93848;95221.34;;;;
2021/04/02 05:00:06;;;;;;;24.1;13.3;;;;;;;5.72;73.93848;95221.34;;;;
2021/04/02 05:01:11;;;;;;;24.1;13.3;;;;;;;5.72;73.93848;95221.34;;;;
2021/04/02 05:02:13;;;;;;;24.1;13.3;;;;;;;5.72;73.93848;95221.34;;;;
2021/04/02 05:03:16;;;;;;;28.65;15.35;;;;;;;5.61;74.07813;95213.55;;;;
2021/04/02 05:04:20;;;;;;;28.65;15.35;;;;;;;5.61;74.07813;95213.55;;;;
2021/04/02 05:05:23;;;;;;;28.65;15.35;;;;;;;5.61;74.07813;95213.55;;;;
2021/04/02 05:06:28;;;;;;;28.65;15.35;;;;;;;5.61;74.07813;95213.55;;;;
2021/04/02 05:07:31;;;;;;;28.65;15.35;;;;;;;5.61;74.07813;95213.55;;;;
2021/04/02 05:08:33;;;;;;;28.65;15.35;;;;;;;5.61;74.07813;95213.55;;;;
2021/04/02 05:09:40;;;;;;;28.65;15.35;;;;;;;5.61;74.07813;95213.55;;;;
2021/04/02 05:10:42;;;;;;;28.65;15.35;;;;;;;5.61;74.07813;95213.55;;;;
2021/04/02 05:11:45;;;;;;;28.65;15.35;;;;;;;5.61;74.07813;95213.55;;;;
2021/04/02 05:12:47;;;;;;;28.65;15.35;;;;;;;5.61;74.07813;95213.55;;;;
2021/04/02 05:13:50;;;;;;;26.2;14.8;;;;;;;5.66;74.0332;95220.95;;;;
2021/04/02 05:14:52;;;;;;;26.2;14.8;;;;;;;5.66;74.0332;95220.95;;;;
2021/04/02 05:15:53;;;;;;;26.2;14.8;;;;;;;5.66;74.0332;95220.95;;;;
2021/04/02 05:16:54;;;;;;;26.2;14.8;;;;;;;5.66;74.0332;95220.95;;;;
2021/04/02 05:17:56;;;;;;;26.2;14.8;;;;;;;5.66;74.0332;95220.95;;;;
2021/04/02 05:18:57;;;;;;;26.2;14.8;;;;;;;5.66;74.0332;95220.95;;;;
2021/04/02 05:19:57;;;;;;;26.2;14.8;;;;;;;5.66;74.0332;95220.95;;;;
2021/04/02 05:20:58;;;;;;;26.2;14.8;;;;;;;5.66;74.0332;95220.95;;;;
2021/04/02 05:21:59;;;;;;;26.2;14.8;;;;;;;5.66;74.0332;95220.95;;;;
2021/04/02 05:23:00;;;;;;;26.2;14.8;;;;;;;5.66;74.0332;95220.95;;;;
2021/04/02 05:24:00;;;;;;;26.2;14.8;;;;;;;5.66;74.0332;95220.95;;;;
2021/04/02 05:25:01;;;;;;;25.95;14.75;;;;;;;5.75;73.87988;95224.97;;;;
2021/04/02 05:26:02;;;;;;;25.95;14.75;;;;;;;5.75;73.87988;95224.97;;;;
2021/04/02 05:27:03;;;;;;;25.95;14.75;;;;;;;5.75;73.87988;95224.97;;;;
2021/04/02 05:28:05;;;;;;;25.95;14.75;;;;;;;5.75;73.87988;95224.97;;;;
2021/04/02 05:29:06;;;;;;;25.95;14.75;;;;;;;5.75;73.87988;95224.97;;;;
2021/04/02 05:30:08;;;;;;;25.95;14.75;;;;;;;5.75;73.87988;95224.97;;;;
2021/04/02 05:31:09;;;;;;;25.95;14.75;;;;;;;5.75;73.87988;95224.97;;;;
2021/04/02 05:32:10;;;;;;;25.95;14.75;;;;;;;5.75;73.87988;95224.97;;;;
2021/04/02 05:33:11;;;;;;;25.95;14.75;;;;;;;5.75;73.87988;95224.97;;;;
2021/04/02 05:34:14;;;;;;;25.95;14.75;;;;;;;5.75;73.87988;95224.97;;;;
2021/04/02 05:35:14;;;;;;;26.79999;15.15;;;;;;;5.87;73.91992;95238.16;;;;
2021/04/02 05:36:16;;;;;;;26.79999;15.15;;;;;;;5.87;73.91992;95238.16;;;;
2021/04/02 05:37:17;;;;;;;26.79999;15.15;;;;;;;5.87;73.91992;95238.16;;;;
2021/04/02 05:38:17;;;;;;;26.79999;15.15;;;;;;;5.87;73.91992;95238.16;;;;
2021/04/02 05:39:17;;;;;;;26.79999;15.15;;;;;;;5.87;73.91992;95238.16;;;;
2021/04/02 05:40:18;;;;;;;26.79999;15.15;;;;;;;5.87;73.91992;95238.16;;;;
2021/04/02 05:41:19;;;;;;;26.79999;15.15;;;;;;;5.87;73.91992;95238.16;;;;
2021/04/02 05:42:24;;;;;;;26.79999;15.15;;;;;;;5.87;73.91992;95238.16;;;;
2021/04/02 05:43:27;;;;;;;26.79999;15.15;;;;;;;5.87;73.91992;95238.16;;;;
2021/04/02 05:44:33;;;;;;;26.79999;15.15;;;;;;;5.87;73.91992;95238.16;;;;
2021/04/02 05:45:35;;;;;;;26.6;16.1;;;;;;;6.11;73.83496;95244.62;;;;
2021/04/02 05:46:38;;;;;;;26.6;16.1;;;;;;;6.11;73.83496;95244.62;;;;
2021/04/02 05:47:40;;;;;;;26.6;16.1;;;;;;;6.11;73.83496;95244.62;;;;
2021/04/02 05:48:42;;;;;;;26.6;16.1;;;;;;;6.11;73.83496;95244.62;;;;
2021/04/02 05:49:44;;;;;;;26.6;16.1;;;;;;;6.11;73.83496;95244.62;;;;